createdAt,value
2023-01-11T00:01:03.830Z,72.20
2023-01-11T00:03:31.945Z,72.20
2023-01-11T00:05:59.858Z,72.10
2023-01-11T00:08:28.595Z,71.80
2023-01-11T00:10:56.088Z,71.70
2023-01-11T00:13:23.507Z,71.80
2023-01-11T00:15:52.137Z,71.60
2023-01-11T00:18:19.532Z,71.50
2023-01-11T00:20:46.804Z,71.50
2023-01-11T00:23:14.070Z,71.50
2023-01-11T00:25:41.473Z,71.70
2023-01-11T00:28:09.491Z,71.80
2023-01-11T00:30:37.173Z,72.00
2023-01-11T00:33:05.781Z,72.00
2023-01-11T00:35:33.100Z,71.70
2023-01-11T00:38:00.392Z,71.70
2023-01-11T00:40:27.905Z,71.30
2023-01-11T00:43:14.015Z,71.30
2023-01-11T00:46:01.655Z,71.30
2023-01-11T00:48:30.266Z,71.20
2023-01-11T00:50:57.741Z,71.20
2023-01-11T00:53:25.023Z,71.20
2023-01-11T00:55:52.274Z,71.10
2023-01-11T00:58:19.515Z,71.00
2023-01-11T01:00:46.821Z,70.90
2023-01-11T01:03:14.072Z,70.80
2023-01-11T01:05:42.725Z,70.90
2023-01-11T01:08:09.960Z,70.70
2023-01-11T01:10:37.263Z,70.50
2023-01-11T01:13:22.932Z,70.60
2023-01-11T01:15:56.717Z,70.40
2023-01-11T01:18:24.118Z,70.70
2023-01-11T01:20:52.689Z,71.00
2023-01-11T01:23:19.951Z,71.00
2023-01-11T01:25:47.195Z,70.80
2023-01-11T01:28:14.450Z,70.50
2023-01-11T01:30:41.729Z,70.50
2023-01-11T01:33:08.964Z,70.80
2023-01-11T01:35:37.788Z,70.80
2023-01-11T01:38:06.356Z,70.50
2023-01-11T01:40:33.635Z,70.50
2023-01-11T01:43:00.883Z,70.80
2023-01-11T01:45:28.897Z,71.10
2023-01-11T01:47:59.046Z,70.80
2023-01-11T01:50:29.400Z,70.80
2023-01-11T01:53:01.126Z,70.90
2023-01-11T01:55:33.739Z,70.80
2023-01-11T01:58:02.684Z,70.60
2023-01-11T02:00:30.289Z,70.70
2023-01-11T02:03:00.652Z,70.50
2023-01-11T02:05:28.263Z,70.50
2023-01-11T02:07:58.778Z,70.10
2023-01-11T02:10:28.110Z,69.90
2023-01-11T02:13:00.559Z,69.80
2023-01-11T02:15:28.962Z,69.80
2023-01-11T02:17:56.207Z,69.60
2023-01-11T02:20:34.859Z,69.70
2023-01-11T02:23:40.129Z,69.40
2023-01-11T02:26:47.222Z,69.30
2023-01-11T02:29:28.338Z,69.20
2023-01-11T02:32:08.053Z,69.40
2023-01-11T02:34:42.199Z,69.50
2023-01-11T02:37:22.492Z,69.30
2023-01-11T02:39:59.970Z,69.00
2023-01-11T02:42:55.462Z,69.00
2023-01-11T02:45:37.841Z,68.60
2023-01-11T02:48:14.186Z,68.90
2023-01-11T02:50:46.651Z,69.20
2023-01-11T02:53:20.671Z,68.80
2023-01-11T02:55:54.042Z,68.70
2023-01-11T02:58:24.733Z,68.40
2023-01-11T03:00:55.809Z,68.70
2023-01-11T03:03:25.118Z,68.10
2023-01-11T03:05:56.351Z,67.60
2023-01-11T03:08:41.275Z,67.80
2023-01-11T03:11:11.757Z,67.70
2023-01-11T03:13:53.462Z,67.70
2023-01-11T03:16:25.184Z,67.50
2023-01-11T03:19:01.656Z,67.80
2023-01-11T03:21:42.838Z,67.90
2023-01-11T03:24:17.784Z,67.80
2023-01-11T03:26:54.815Z,67.60
2023-01-11T03:29:28.784Z,67.30
2023-01-11T03:32:12.243Z,67.30
2023-01-11T03:34:48.515Z,67.20
2023-01-11T03:37:20.768Z,67.00
2023-01-11T03:39:55.439Z,67.20
2023-01-11T03:42:24.347Z,66.90
2023-01-11T03:44:55.511Z,66.80
2023-01-11T03:47:27.003Z,66.50
2023-01-11T03:49:58.540Z,66.70
2023-01-11T03:52:31.825Z,66.90
2023-01-11T03:55:00.109Z,66.80
2023-01-11T03:57:31.889Z,67.10
2023-01-11T04:00:00.027Z,66.80
2023-01-11T04:02:34.985Z,67.20
2023-01-11T04:05:02.863Z,67.20
2023-01-11T04:07:30.112Z,67.20
2023-01-11T04:09:58.614Z,66.70
2023-01-11T04:12:25.923Z,66.60
2023-01-11T04:14:53.465Z,66.70
2023-01-11T04:17:20.894Z,67.10
2023-01-11T04:19:49.535Z,67.00
2023-01-11T04:22:16.889Z,67.10
2023-01-11T04:24:44.142Z,67.00
2023-01-11T04:27:11.380Z,66.80
2023-01-11T04:29:38.620Z,66.90
2023-01-11T04:32:06.881Z,66.90
2023-01-11T04:34:34.113Z,66.90
2023-01-11T04:37:02.666Z,66.90
2023-01-11T04:39:29.888Z,66.70
2023-01-11T04:42:15.495Z,66.90
2023-01-11T04:44:42.773Z,67.40
2023-01-11T04:47:10.042Z,66.90
2023-01-11T04:49:37.319Z,66.90
2023-01-11T04:52:05.988Z,66.70
2023-01-11T04:54:33.281Z,67.10
2023-01-11T04:57:00.552Z,66.90
2023-01-11T04:59:27.846Z,67.40
2023-01-11T05:01:55.157Z,67.40
2023-01-11T05:04:22.601Z,67.60
2023-01-11T05:06:49.911Z,67.30
2023-01-11T05:09:19.192Z,67.30
2023-01-11T05:11:46.462Z,67.50
2023-01-11T05:14:14.385Z,67.60
2023-01-11T05:16:42.240Z,67.60
2023-01-11T05:19:11.513Z,67.40
2023-01-11T05:21:40.308Z,67.50
2023-01-11T05:24:10.314Z,67.60
2023-01-11T05:26:41.044Z,67.30
2023-01-11T05:29:11.134Z,67.20
2023-01-11T05:31:40.065Z,67.60
2023-01-11T05:34:08.123Z,67.80
2023-01-11T05:36:36.288Z,67.80
2023-01-11T05:39:04.906Z,67.70
2023-01-11T05:41:32.884Z,67.80
2023-01-11T05:44:20.227Z,67.40
2023-01-11T05:46:47.466Z,68.00
2023-01-11T05:49:15.335Z,67.90
2023-01-11T05:51:43.233Z,67.80
2023-01-11T05:54:12.940Z,67.90
2023-01-11T05:56:40.598Z,68.00
2023-01-11T05:59:09.340Z,68.10
2023-01-11T06:01:37.088Z,67.80
2023-01-11T06:04:04.557Z,68.00
2023-01-11T06:06:32.527Z,68.00
2023-01-11T06:08:59.860Z,68.40
2023-01-11T06:11:27.167Z,68.80
2023-01-11T06:13:54.501Z,69.40
2023-01-11T06:16:23.748Z,69.60
2023-01-11T06:18:52.612Z,69.70
2023-01-11T06:21:20.759Z,69.80
2023-01-11T06:23:50.879Z,69.60
2023-01-11T06:26:20.503Z,69.60
2023-01-11T06:28:48.330Z,69.60
2023-01-11T06:31:17.793Z,69.60
2023-01-11T06:33:47.482Z,69.70
2023-01-11T06:36:15.918Z,69.50
2023-01-11T06:38:44.158Z,69.60
2023-01-11T06:41:12.216Z,69.20
2023-01-11T06:43:41.711Z,69.20
2023-01-11T06:46:13.247Z,69.10
2023-01-11T06:48:40.539Z,69.10
2023-01-11T06:51:12.294Z,69.00
2023-01-11T06:53:40.610Z,69.00
2023-01-11T06:56:10.836Z,69.10
2023-01-11T06:58:38.369Z,69.20
2023-01-11T07:01:06.297Z,69.10
2023-01-11T07:03:33.688Z,72.10
2023-01-11T07:06:01.974Z,71.50
2023-01-11T07:08:30.682Z,71.60
2023-01-11T07:10:58.137Z,71.50
2023-01-11T07:13:25.676Z,71.00
2023-01-11T07:15:56.596Z,70.30
2023-01-11T07:18:23.876Z,69.20
2023-01-11T07:20:52.448Z,68.80
2023-01-11T07:23:19.758Z,68.60
2023-01-11T07:25:49.918Z,68.60
2023-01-11T07:28:17.343Z,68.30
2023-01-11T07:30:57.297Z,68.20
2023-01-11T07:33:25.831Z,68.50
2023-01-11T07:35:53.546Z,69.00
2023-01-11T07:38:21.246Z,69.20
2023-01-11T07:40:49.939Z,68.90
2023-01-11T07:43:23.127Z,69.10
2023-01-11T07:45:52.683Z,69.00
2023-01-11T07:48:24.583Z,69.20
2023-01-11T07:50:52.576Z,69.20
2023-01-11T07:53:20.083Z,69.50
2023-01-11T07:55:48.656Z,69.40
2023-01-11T07:58:16.383Z,69.10
2023-01-11T08:00:44.130Z,69.40
2023-01-11T08:03:11.516Z,69.50
2023-01-11T08:05:39.277Z,69.70
2023-01-11T08:08:07.176Z,69.90
2023-01-11T08:10:34.800Z,70.30
2023-01-11T08:13:21.951Z,70.40
2023-01-11T08:15:49.272Z,70.30
2023-01-11T08:18:17.456Z,70.20
2023-01-11T08:20:45.704Z,70.20
2023-01-11T08:23:13.057Z,70.20
2023-01-11T08:25:40.428Z,70.20
2023-01-11T08:28:10.653Z,70.40
2023-01-11T08:30:38.529Z,70.60
2023-01-11T08:33:06.237Z,70.90
2023-01-11T08:35:38.493Z,71.00
2023-01-11T08:38:05.848Z,70.80
2023-01-11T08:40:34.222Z,70.90
2023-01-11T08:43:01.511Z,70.90
2023-01-11T08:45:30.057Z,71.30
2023-01-11T08:47:59.474Z,71.20
2023-01-11T08:50:26.959Z,71.30
2023-01-11T08:52:54.364Z,71.30
2023-01-11T08:55:21.729Z,71.20
2023-01-11T08:57:49.026Z,71.20
2023-01-11T09:00:17.305Z,71.30
2023-01-11T09:02:46.011Z,71.30
2023-01-11T09:05:13.469Z,71.50
2023-01-11T09:07:40.745Z,71.50
2023-01-11T09:10:08.921Z,71.60
2023-01-11T09:12:36.194Z,71.40
2023-01-11T09:15:05.989Z,71.60
2023-01-11T09:17:33.443Z,71.70
2023-01-11T09:20:01.999Z,71.80
2023-01-11T09:22:29.316Z,71.70
2023-01-11T09:24:58.995Z,71.80
2023-01-11T09:27:26.524Z,71.70
2023-01-11T09:29:53.862Z,71.60
2023-01-11T09:32:21.277Z,71.50
2023-01-11T09:34:49.750Z,71.60
2023-01-11T09:37:19.749Z,71.90
2023-01-11T09:39:47.742Z,72.00
2023-01-11T09:42:32.187Z,72.10
2023-01-11T09:45:07.180Z,72.20
2023-01-11T09:47:40.793Z,72.00
2023-01-11T09:50:15.402Z,72.20
2023-01-11T09:52:47.452Z,72.30
2023-01-11T09:55:21.245Z,72.90
2023-01-11T09:57:58.326Z,73.50
2023-01-11T10:00:32.832Z,73.70
2023-01-11T10:03:33.712Z,74.00
2023-01-11T10:06:10.348Z,74.50
2023-01-11T10:18:29.106Z,75.60
2023-01-11T10:18:39.948Z,75.90
2023-01-11T10:20:50.247Z,76.40
2023-01-11T10:23:28.905Z,77.00
2023-01-11T10:26:01.811Z,77.60
2023-01-11T10:28:39.641Z,77.70
2023-01-11T10:31:29.764Z,78.20
2023-01-11T10:34:18.559Z,78.40
2023-01-11T10:37:12.942Z,78.90
2023-01-11T10:40:06.452Z,78.70
2023-01-11T10:42:44.904Z,79.10
2023-01-11T10:45:17.864Z,79.10
2023-01-11T10:47:56.907Z,79.00
2023-01-11T10:50:27.996Z,79.70
2023-01-11T10:53:00.894Z,80.00
2023-01-11T10:55:39.778Z,80.00
2023-01-11T10:58:18.601Z,80.20
2023-01-11T11:00:58.502Z,80.10
2023-01-11T11:03:48.759Z,80.20
2023-01-11T11:06:23.923Z,80.40
2023-01-11T11:08:55.222Z,80.60
2023-01-11T11:11:29.899Z,80.80
2023-01-11T11:14:03.769Z,81.10
2023-01-11T11:16:43.384Z,81.90
2023-01-11T11:19:14.960Z,82.00
2023-01-11T11:21:43.423Z,82.10
2023-01-11T11:24:19.663Z,82.10
2023-01-11T11:26:51.897Z,82.20
2023-01-11T11:29:23.186Z,82.20
2023-01-11T11:31:51.418Z,82.10
2023-01-11T11:34:20.757Z,82.10
2023-01-11T11:36:50.491Z,82.10
2023-01-11T11:39:20.777Z,82.20
2023-01-11T11:41:49.847Z,82.20
2023-01-11T11:44:20.099Z,82.20
2023-01-11T11:46:59.339Z,82.20
2023-01-11T11:49:27.222Z,82.40
2023-01-11T11:51:55.597Z,82.20
2023-01-11T11:54:27.383Z,82.20
2023-01-11T11:56:57.037Z,82.50
2023-01-11T11:59:28.710Z,82.60
2023-01-11T12:02:02.057Z,82.70
2023-01-11T12:04:43.925Z,83.00
2023-01-11T12:07:17.209Z,83.40
2023-01-11T12:09:48.561Z,83.40
2023-01-11T12:12:20.623Z,83.40
2023-01-11T12:15:18.925Z,83.20
2023-01-11T12:17:48.212Z,83.10
2023-01-11T12:20:33.896Z,83.10
2023-01-11T12:23:18.241Z,83.40
2023-01-11T12:26:06.290Z,83.40
2023-01-11T12:28:50.222Z,83.40
2023-01-11T12:31:29.454Z,83.30
2023-01-11T12:34:07.645Z,83.40
2023-01-11T12:36:47.692Z,83.40
2023-01-11T12:39:21.688Z,83.70
2023-01-11T12:42:00.583Z,83.80
2023-01-11T12:44:41.544Z,84.00
2023-01-11T12:47:42.192Z,84.00
2023-01-11T12:50:17.440Z,84.10
2023-01-11T12:53:07.065Z,84.10
2023-01-11T12:55:49.880Z,83.90
2023-01-11T12:58:22.705Z,83.90
2023-01-11T13:01:07.049Z,84.20
2023-01-11T13:04:10.620Z,84.10
2023-01-11T13:06:43.471Z,83.90
2023-01-11T13:09:20.904Z,84.00
2023-01-11T13:11:56.062Z,84.20
2023-01-11T13:14:54.339Z,84.10
2023-01-11T13:17:33.074Z,84.40
2023-01-11T13:20:13.262Z,84.50
2023-01-11T13:22:46.991Z,84.50
2023-01-11T13:25:18.594Z,84.50
2023-01-11T13:27:47.848Z,84.30
2023-01-11T13:30:17.890Z,84.10
2023-01-11T13:32:55.846Z,84.30
2023-01-11T13:35:33.750Z,83.90
2023-01-11T13:38:11.302Z,84.20
2023-01-11T13:40:44.840Z,84.40
2023-01-11T13:43:19.697Z,84.60
2023-01-11T13:45:51.612Z,84.70
2023-01-11T13:48:23.722Z,84.90
2023-01-11T13:50:56.405Z,84.80
2023-01-11T13:53:31.931Z,84.60
2023-01-11T13:56:06.326Z,84.50
2023-01-11T13:58:39.020Z,84.10
2023-01-11T14:01:12.460Z,84.00
2023-01-11T14:03:45.864Z,83.90
2023-01-11T14:06:26.571Z,83.80
2023-01-11T14:09:15.173Z,83.90
2023-01-11T14:11:51.850Z,84.30
2023-01-11T14:14:32.932Z,84.40
2023-01-11T14:17:19.260Z,84.40
2023-01-11T14:19:53.051Z,84.40
2023-01-11T14:22:29.460Z,84.40
2023-01-11T14:25:02.528Z,84.50
2023-01-11T14:27:55.040Z,84.70
2023-01-11T14:30:37.205Z,84.70
2023-01-11T14:33:34.561Z,84.80
2023-01-11T14:36:25.100Z,84.90
2023-01-11T14:39:24.780Z,85.00
2023-01-11T14:42:31.191Z,85.00
2023-01-11T14:45:19.844Z,84.90
2023-01-11T14:48:10.754Z,84.90
2023-01-11T14:50:55.258Z,84.80
2023-01-11T14:53:27.976Z,84.60
2023-01-11T14:55:55.427Z,84.70
2023-01-11T14:58:27.542Z,84.80
2023-01-11T15:01:11.539Z,84.60
2023-01-11T15:03:55.882Z,84.50
2023-01-11T15:06:23.671Z,84.60
2023-01-11T15:08:54.827Z,84.90
2023-01-11T15:11:35.013Z,84.90
2023-01-11T15:14:21.165Z,85.00
2023-01-11T15:17:10.643Z,84.80
2023-01-11T15:19:41.664Z,84.80
2023-01-11T15:22:29.055Z,84.90
2023-01-11T15:24:59.662Z,84.80
2023-01-11T15:27:31.849Z,85.00
2023-01-11T15:30:01.036Z,84.80
2023-01-11T15:32:30.724Z,84.70
2023-01-11T15:35:29.308Z,84.50
2023-01-11T15:38:03.333Z,84.60
2023-01-11T15:40:34.047Z,84.60
2023-01-11T15:43:45.814Z,84.70
2023-01-11T15:46:55.096Z,84.90
2023-01-11T15:50:07.140Z,85.10
2023-01-11T15:53:26.359Z,85.30
2023-01-11T15:56:30.997Z,85.50
2023-01-11T15:59:20.931Z,85.50
2023-01-11T16:02:13.182Z,85.20
2023-01-11T16:04:46.649Z,85.30
2023-01-11T16:07:22.499Z,85.40
2023-01-11T16:10:12.153Z,85.50
2023-01-11T16:12:57.152Z,85.40
2023-01-11T16:15:38.511Z,85.60
2023-01-11T16:18:13.567Z,85.50
2023-01-11T16:20:43.832Z,85.50
2023-01-11T16:23:19.855Z,85.20
2023-01-11T16:25:52.631Z,85.30
2023-01-11T16:28:20.120Z,85.00
2023-01-11T16:30:54.548Z,85.10
2023-01-11T16:33:26.201Z,84.90
2023-01-11T16:36:04.579Z,84.70
2023-01-11T16:38:39.284Z,84.70
2023-01-11T16:41:08.781Z,84.70
2023-01-11T16:43:48.203Z,85.00
2023-01-11T16:46:52.993Z,85.20
2023-01-11T16:49:21.550Z,85.00
2023-01-11T16:51:49.486Z,85.00
2023-01-11T16:54:24.327Z,84.70
2023-01-11T16:56:51.938Z,84.90
2023-01-11T16:59:24.494Z,85.10
2023-01-11T17:01:53.890Z,85.00
2023-01-11T17:04:31.104Z,85.20
2023-01-11T17:07:12.815Z,85.10
2023-01-11T17:09:40.877Z,84.80
2023-01-11T17:12:15.881Z,84.80
2023-01-11T17:14:58.358Z,84.60
2023-01-11T17:17:27.776Z,84.50
2023-01-11T17:19:59.184Z,84.60
2023-01-11T17:22:29.291Z,84.40
2023-01-11T17:24:58.683Z,84.40
2023-01-11T17:27:28.904Z,84.50
2023-01-11T17:29:58.036Z,84.60
2023-01-11T17:32:33.346Z,84.50
2023-01-11T17:35:05.021Z,84.40
2023-01-11T17:37:33.123Z,84.30
2023-01-11T17:40:00.899Z,84.40
2023-01-11T17:42:47.064Z,84.40
2023-01-11T17:45:21.097Z,84.40
2023-01-11T17:47:50.906Z,84.40
2023-01-11T17:50:23.880Z,84.50
2023-01-11T17:52:55.393Z,84.40
2023-01-11T17:55:24.599Z,84.50
2023-01-11T17:58:11.067Z,84.70
2023-01-11T18:00:38.621Z,84.80
2023-01-11T18:03:11.045Z,85.00
2023-01-11T18:05:39.817Z,85.00
2023-01-11T18:08:18.775Z,84.70
2023-01-11T18:10:52.813Z,84.60
2023-01-11T18:13:27.173Z,84.30
2023-01-11T18:15:54.863Z,84.00
2023-01-11T18:18:41.787Z,83.70
2023-01-11T18:21:50.284Z,83.60
2023-01-11T18:24:43.124Z,83.70
2023-01-11T18:27:34.774Z,84.20
2023-01-11T18:30:06.161Z,84.10
2023-01-11T18:32:37.588Z,84.00
2023-01-11T18:35:12.610Z,83.90
2023-01-11T18:37:41.438Z,84.20
2023-01-11T18:40:12.303Z,84.20
2023-01-11T18:42:39.857Z,84.30
2023-01-11T18:45:09.952Z,84.10
2023-01-11T18:47:37.258Z,84.10
2023-01-11T18:50:05.847Z,84.10
2023-01-11T18:52:33.110Z,84.00
2023-01-11T18:55:01.906Z,84.00
2023-01-11T18:57:29.403Z,84.00
2023-01-11T18:59:56.748Z,84.10
2023-01-11T19:02:26.812Z,84.00
2023-01-11T19:04:56.060Z,83.90
2023-01-11T19:07:23.746Z,83.90
2023-01-11T19:09:51.081Z,83.80
2023-01-11T19:12:19.811Z,83.70
2023-01-11T19:14:47.056Z,83.80
2023-01-11T19:17:14.599Z,83.70
2023-01-11T19:19:42.058Z,83.70
2023-01-11T19:22:10.871Z,83.70
2023-01-11T19:24:39.548Z,83.80
2023-01-11T19:27:06.996Z,83.70
2023-01-11T19:29:35.621Z,83.90
2023-01-11T19:32:02.905Z,84.10
2023-01-11T19:34:32.121Z,84.40
2023-01-11T19:36:59.585Z,84.30
2023-01-11T19:39:27.394Z,84.30
2023-01-11T19:41:54.752Z,84.40
2023-01-11T19:44:23.372Z,84.30
2023-01-11T19:47:00.317Z,84.40
2023-01-11T19:49:36.899Z,84.30
2023-01-11T19:52:04.755Z,84.40
2023-01-11T19:54:32.067Z,84.20
2023-01-11T19:56:59.294Z,84.20
2023-01-11T19:59:26.544Z,84.50
2023-01-11T20:01:55.110Z,84.30
2023-01-11T20:04:22.360Z,84.30
2023-01-11T20:06:53.821Z,84.10
2023-01-11T20:09:22.219Z,83.80
2023-01-11T20:11:49.782Z,83.70
2023-01-11T20:14:17.240Z,83.90
2023-01-11T20:16:44.507Z,84.00
2023-01-11T20:19:13.307Z,83.80
2023-01-11T20:21:40.604Z,83.90
2023-01-11T20:24:10.044Z,84.10
2023-01-11T20:26:37.343Z,83.90
2023-01-11T20:29:06.293Z,83.80
2023-01-11T20:31:35.409Z,83.60
2023-01-11T20:34:11.352Z,83.30
2023-01-11T20:36:40.300Z,83.30
2023-01-11T20:39:08.303Z,83.30
2023-01-11T20:41:48.579Z,83.20
2023-01-11T20:44:18.571Z,83.10
2023-01-11T20:46:47.990Z,83.10
2023-01-11T20:49:16.437Z,83.00
2023-01-11T20:51:46.543Z,82.80
2023-01-11T20:54:14.910Z,82.60
2023-01-11T20:56:42.729Z,82.50
2023-01-11T21:01:37.447Z,82.30
2023-01-11T21:04:06.890Z,82.10
2023-01-11T21:06:36.783Z,82.10
2023-01-11T21:09:06.651Z,82.20
2023-01-11T21:11:34.727Z,83.50
2023-01-11T21:14:04.184Z,82.80
2023-01-11T21:16:31.912Z,82.40
2023-01-11T21:19:01.054Z,82.00
2023-01-11T21:21:30.105Z,82.10
2023-01-11T21:23:58.824Z,82.10
2023-01-11T21:26:29.018Z,82.20
2023-01-11T21:28:59.455Z,82.00
2023-01-11T21:31:28.437Z,81.80
2023-01-11T21:33:56.231Z,81.70
2023-01-11T21:36:27.770Z,81.50
2023-01-11T21:38:56.718Z,81.30
2023-01-11T21:41:43.911Z,81.00
2023-01-11T21:44:13.535Z,80.80
2023-01-11T21:46:41.792Z,80.60
2023-01-11T21:49:10.949Z,80.60
2023-01-11T21:51:38.476Z,80.50
2023-01-11T21:54:07.798Z,80.50
2023-01-11T21:56:35.385Z,80.50
2023-01-11T21:59:02.725Z,80.50
2023-01-11T22:01:31.390Z,80.60
2023-01-11T22:03:58.843Z,80.70
2023-01-11T22:06:26.099Z,80.50
2023-01-11T22:08:53.569Z,80.60
2023-01-11T22:11:20.907Z,80.40
2023-01-11T22:13:48.206Z,80.50
2023-01-11T22:16:17.724Z,80.50
2023-01-11T22:18:46.424Z,80.40
2023-01-11T22:21:15.845Z,80.30
2023-01-11T22:23:43.292Z,80.20
2023-01-11T22:26:12.420Z,80.40
2023-01-11T22:28:58.723Z,80.20
2023-01-11T22:31:27.796Z,80.20
2023-01-11T22:33:57.441Z,79.90
2023-01-11T22:36:26.320Z,79.70
2023-01-11T22:38:54.514Z,79.60
2023-01-11T22:41:23.426Z,79.60
2023-01-11T22:43:51.167Z,79.40
2023-01-11T22:46:20.115Z,79.40
2023-01-11T22:48:48.564Z,79.60
2023-01-11T22:51:19.284Z,79.50
2023-01-11T22:53:48.590Z,79.20
2023-01-11T22:56:18.953Z,79.00
2023-01-11T22:58:46.645Z,78.90
2023-01-11T23:01:15.836Z,79.00
2023-01-11T23:03:43.794Z,79.10
2023-01-11T23:06:11.943Z,79.20
2023-01-11T23:08:42.377Z,78.90
2023-01-11T23:11:11.618Z,78.90
2023-01-11T23:13:55.105Z,79.00
2023-01-11T23:16:22.817Z,79.30
2023-01-11T23:18:50.417Z,79.30
2023-01-11T23:21:17.748Z,79.40
2023-01-11T23:23:46.753Z,79.60
2023-01-11T23:26:17.794Z,79.50
2023-01-11T23:28:45.872Z,79.60
2023-01-11T23:31:18.510Z,79.70
2023-01-11T23:33:47.320Z,79.50
2023-01-11T23:36:16.468Z,79.50
2023-01-11T23:38:43.982Z,79.70
2023-01-11T23:41:33.685Z,79.80
2023-01-11T23:44:01.291Z,80.00
2023-01-11T23:46:47.352Z,79.90
2023-01-11T23:49:14.654Z,79.90
2023-01-11T23:51:42.642Z,80.20
2023-01-11T23:54:10.474Z,80.40
2023-01-11T23:56:39.143Z,80.60
2023-01-11T23:59:06.951Z,80.50
